createdAt,value
2022-11-14T00:02:38.014Z,33.80
2022-11-14T00:05:24.773Z,32.80
2022-11-14T00:08:16.914Z,34.08
2022-11-14T00:11:04.090Z,30.87
2022-11-14T00:13:51.752Z,34.53
2022-11-14T00:16:38.680Z,30.05
2022-11-14T00:19:25.340Z,31.35
2022-11-14T00:22:13.641Z,31.33
2022-11-14T00:25:00.190Z,30.52
2022-11-14T00:27:46.606Z,27.80
2022-11-14T00:30:34.339Z,30.67
2022-11-14T00:33:21.721Z,30.77
2022-11-14T00:36:08.261Z,31.80
2022-11-14T00:38:55.703Z,33.97
2022-11-14T00:41:42.882Z,33.50
2022-11-14T00:44:29.467Z,37.90
2022-11-14T00:47:17.074Z,38.20
2022-11-14T00:50:03.456Z,35.17
2022-11-14T00:52:49.688Z,36.22
2022-11-14T00:55:36.403Z,36.20
2022-11-14T00:58:23.014Z,36.17
2022-11-14T01:01:09.675Z,35.45
2022-11-14T01:03:57.913Z,39.33
2022-11-14T01:06:44.592Z,40.95
2022-11-14T01:09:30.892Z,32.50
2022-11-14T01:12:17.920Z,34.50
2022-11-14T01:15:04.480Z,36.63
2022-11-14T01:17:51.201Z,31.40
2022-11-14T01:20:41.454Z,35.47
2022-11-14T01:23:28.107Z,39.33
2022-11-14T01:26:15.415Z,38.78
2022-11-14T01:29:03.287Z,38.53
2022-11-14T01:31:49.713Z,35.67
2022-11-14T01:34:36.362Z,34.00
2022-11-14T01:37:24.045Z,32.65
2022-11-14T01:40:12.342Z,31.50
2022-11-14T01:43:27.650Z,38.20
2022-11-14T01:46:19.178Z,34.65
2022-11-14T01:49:12.704Z,34.00
2022-11-14T01:52:03.290Z,35.45
2022-11-14T01:54:54.460Z,35.67
2022-11-14T01:57:44.548Z,38.95
2022-11-14T02:00:30.763Z,42.75
2022-11-14T02:03:18.756Z,34.22
2022-11-14T02:06:07.588Z,40.10
2022-11-14T02:08:55.079Z,40.55
2022-11-14T02:11:45.774Z,37.05
2022-11-14T02:14:33.130Z,38.83
2022-11-14T02:17:29.492Z,32.72
2022-11-14T02:20:21.200Z,37.22
2022-11-14T02:23:07.871Z,36.97
2022-11-14T02:25:54.366Z,32.38
2022-11-14T02:28:40.606Z,34.67
2022-11-14T02:31:26.966Z,34.70
2022-11-14T02:34:16.672Z,35.35
2022-11-14T02:37:05.832Z,36.03
2022-11-14T02:39:52.948Z,33.03
2022-11-14T02:42:39.633Z,28.83
2022-11-14T02:45:26.505Z,36.85
2022-11-14T02:48:12.806Z,35.08
2022-11-14T02:50:59.047Z,39.42
2022-11-14T02:53:47.355Z,36.95
2022-11-14T02:56:33.599Z,38.70
2022-11-14T02:59:19.865Z,37.50
2022-11-14T03:02:06.223Z,41.97
2022-11-14T03:04:53.123Z,40.35
2022-11-14T03:07:39.696Z,41.15
2022-11-14T03:10:27.597Z,41.75
2022-11-14T03:13:14.041Z,40.78
2022-11-14T03:16:06.524Z,46.53
2022-11-14T03:18:53.336Z,43.05
2022-11-14T03:21:40.040Z,40.15
2022-11-14T03:24:26.786Z,44.75
2022-11-14T03:27:14.904Z,43.15
2022-11-14T03:30:01.329Z,41.30
2022-11-14T03:32:49.764Z,40.92
2022-11-14T03:35:36.244Z,42.47
2022-11-14T03:38:23.197Z,38.55
2022-11-14T03:41:09.828Z,39.67
2022-11-14T03:44:04.917Z,41.45
2022-11-14T03:46:52.784Z,34.95
2022-11-14T03:49:39.375Z,39.63
2022-11-14T03:52:32.179Z,41.53
2022-11-14T03:55:19.137Z,35.38
2022-11-14T03:58:05.755Z,37.72
2022-11-14T04:01:00.704Z,30.02
2022-11-14T04:03:47.497Z,32.70
2022-11-14T04:06:34.294Z,33.83
2022-11-14T04:09:20.605Z,28.15
2022-11-14T04:12:11.314Z,36.20
2022-11-14T04:15:04.274Z,35.03
2022-11-14T04:17:53.048Z,36.97
2022-11-14T04:20:39.329Z,40.60
2022-11-14T04:23:25.631Z,39.45
2022-11-14T04:26:12.373Z,35.53
2022-11-14T04:28:58.849Z,36.15
2022-11-14T04:31:45.165Z,36.85
2022-11-14T04:34:33.110Z,34.63
2022-11-14T04:37:19.360Z,41.17
2022-11-14T04:40:06.786Z,39.15
2022-11-14T04:42:53.216Z,38.58
2022-11-14T04:45:39.530Z,39.22
2022-11-14T04:48:25.920Z,39.67
2022-11-14T04:51:13.774Z,33.80
2022-11-14T04:54:00.145Z,38.45
2022-11-14T04:56:46.759Z,35.85
2022-11-14T04:59:33.170Z,40.65
2022-11-14T05:02:20.875Z,35.60
2022-11-14T05:05:07.869Z,39.92
2022-11-14T05:07:57.865Z,39.95
2022-11-14T05:10:45.366Z,44.55
2022-11-14T05:13:31.679Z,33.38
2022-11-14T05:16:18.017Z,37.70
2022-11-14T05:19:04.871Z,42.17
2022-11-14T05:21:51.168Z,36.25
2022-11-14T05:24:39.472Z,37.92
2022-11-14T05:27:25.844Z,34.50
2022-11-14T05:30:13.443Z,36.88
2022-11-14T05:33:00.853Z,34.08
2022-11-14T05:35:47.354Z,35.88
2022-11-14T05:38:33.713Z,40.22
2022-11-14T05:41:21.782Z,40.95
2022-11-14T05:44:09.077Z,34.72
2022-11-14T05:46:55.963Z,38.13
2022-11-14T05:49:42.467Z,35.78
2022-11-14T05:59:04.938Z,36.50
2022-11-14T06:01:51.256Z,33.83
2022-11-14T06:04:37.959Z,38.00
2022-11-14T06:07:24.502Z,32.58
2022-11-14T06:10:11.456Z,37.25
2022-11-14T06:12:58.000Z,29.55
2022-11-14T06:15:45.970Z,33.65
2022-11-14T06:18:33.207Z,33.53
2022-11-14T06:21:22.167Z,33.35
2022-11-14T06:24:08.804Z,31.15
2022-11-14T06:26:55.006Z,34.05
2022-11-14T06:29:41.135Z,33.38
2022-11-14T06:32:29.102Z,33.47
2022-11-14T06:35:16.014Z,32.05
2022-11-14T06:38:02.744Z,31.55
2022-11-14T06:40:49.094Z,29.88
2022-11-14T06:43:37.110Z,30.40
2022-11-14T06:46:23.987Z,25.25
2022-11-14T06:49:11.919Z,32.88
2022-11-14T06:51:58.093Z,30.35
2022-11-14T06:54:44.670Z,34.35
2022-11-14T06:57:31.111Z,38.30
2022-11-14T07:00:18.589Z,34.08
2022-11-14T07:03:05.304Z,33.20
2022-11-14T07:05:52.979Z,31.40
2022-11-14T07:08:39.560Z,27.48
2022-11-14T07:11:29.858Z,32.75
2022-11-14T07:14:16.697Z,34.97
2022-11-14T07:17:03.173Z,22.90
2022-11-14T07:19:49.438Z,35.25
2022-11-14T07:22:37.176Z,25.20
2022-11-14T07:25:23.682Z,24.27
2022-11-14T07:28:10.210Z,31.25
2022-11-14T07:30:56.526Z,32.58
2022-11-14T08:19:53.452Z,45.85
2022-11-14T08:22:46.462Z,30.02
2022-11-14T08:25:44.496Z,33.08
2022-11-14T08:28:32.897Z,42.67
2022-11-14T08:31:19.650Z,42.83
2022-11-14T08:34:06.170Z,47.47
2022-11-14T08:36:52.995Z,43.88
2022-11-14T08:39:39.850Z,45.70
2022-11-14T08:42:26.303Z,40.33
2022-11-14T08:45:14.427Z,46.97
2022-11-14T08:48:00.756Z,48.97
2022-11-14T08:50:49.330Z,36.40
2022-11-14T08:53:41.075Z,37.33
2022-11-14T08:56:27.276Z,39.80
2022-11-14T08:59:13.568Z,42.38
2022-11-14T09:02:01.563Z,41.38
2022-11-14T09:04:48.041Z,40.55
2022-11-14T09:07:34.659Z,40.35
2022-11-14T09:10:21.141Z,36.13
2022-11-14T09:13:07.334Z,35.45
2022-11-14T09:15:54.379Z,33.70
2022-11-14T09:18:42.748Z,35.42
2022-11-14T09:21:29.688Z,34.58
2022-11-14T09:24:17.399Z,30.55
2022-11-14T09:27:04.480Z,38.33
2022-11-14T09:29:51.524Z,31.17
2022-11-14T09:32:37.845Z,31.10
2022-11-14T09:35:25.882Z,29.48
2022-11-14T09:38:13.088Z,26.75
2022-11-14T09:41:19.234Z,28.08
2022-11-14T09:44:20.797Z,29.50
2022-11-14T09:47:16.658Z,28.20
2022-11-14T09:50:12.264Z,27.73
2022-11-14T09:53:06.641Z,25.20
2022-11-14T09:55:53.328Z,26.90
2022-11-14T09:58:42.901Z,24.13
2022-11-14T10:01:37.811Z,21.38
2022-11-14T10:04:32.001Z,25.38
2022-11-14T10:07:28.701Z,24.30
2022-11-14T10:10:38.873Z,22.13
2022-11-14T10:13:51.007Z,27.05
2022-11-14T10:16:48.892Z,22.67
2022-11-14T10:19:43.109Z,21.27
2022-11-14T10:22:48.852Z,26.85
2022-11-14T10:25:48.171Z,20.48
2022-11-14T10:28:50.049Z,25.85
2022-11-14T10:31:47.282Z,24.80
2022-11-14T10:34:39.030Z,22.58
2022-11-14T10:37:30.857Z,26.83
2022-11-14T10:40:21.090Z,28.53
2022-11-14T10:43:21.942Z,23.50
2022-11-14T10:46:13.738Z,23.67
2022-11-14T10:49:00.980Z,20.73
2022-11-14T10:51:51.432Z,24.45
2022-11-14T10:54:42.977Z,22.05
2022-11-14T10:57:30.241Z,23.52
2022-11-14T11:00:20.655Z,22.10
2022-11-14T11:03:13.818Z,22.38
2022-11-14T11:06:00.149Z,19.75
2022-11-14T11:09:04.018Z,20.83
2022-11-14T11:11:56.783Z,21.75
2022-11-14T11:14:43.940Z,23.98
2022-11-14T11:17:38.453Z,23.08
2022-11-14T11:23:50.502Z,22.50
2022-11-14T11:26:37.448Z,20.02
2022-11-14T11:29:23.856Z,24.13
2022-11-14T11:32:10.645Z,19.70
2022-11-14T11:35:02.160Z,22.60
2022-11-14T11:37:55.770Z,19.92
2022-11-14T11:40:47.867Z,19.42
2022-11-14T11:43:47.117Z,18.45
2022-11-14T11:46:42.766Z,20.45
2022-11-14T11:49:38.202Z,18.35
2022-11-14T11:52:35.183Z,18.77
2022-11-14T11:55:25.666Z,16.15
2022-11-14T11:58:20.796Z,20.23
2022-11-14T12:01:10.135Z,18.35
2022-11-14T12:03:57.088Z,19.63
2022-11-14T12:06:49.592Z,18.30
2022-11-14T12:10:08.735Z,17.67
2022-11-14T12:13:14.768Z,24.05
2022-11-14T12:16:13.347Z,20.67
2022-11-14T12:19:23.471Z,25.52
2022-11-14T12:22:25.515Z,19.33
2022-11-14T12:26:00.870Z,18.50
2022-11-14T12:29:04.426Z,17.77
2022-11-14T12:31:56.215Z,20.92
2022-11-14T12:34:45.564Z,15.40
2022-11-14T12:37:35.427Z,17.42
2022-11-14T12:40:29.976Z,17.30
2022-11-14T12:43:37.486Z,16.63
2022-11-14T12:46:24.096Z,16.33
2022-11-14T12:49:38.267Z,14.43
2022-11-14T12:52:48.733Z,17.05
2022-11-14T12:55:57.707Z,17.20
2022-11-14T12:59:00.745Z,15.32
2022-11-14T13:01:59.775Z,14.57
2022-11-14T13:05:01.146Z,15.35
2022-11-14T13:08:00.320Z,16.30
2022-11-14T13:10:47.284Z,17.33
2022-11-14T13:13:51.432Z,17.20
2022-11-14T13:16:56.596Z,19.40
2022-11-14T13:20:05.227Z,15.02
2022-11-14T13:22:51.823Z,17.33
2022-11-14T13:25:38.676Z,17.23
2022-11-14T13:28:48.711Z,15.18
2022-11-14T13:31:48.829Z,15.50
2022-11-14T13:34:50.791Z,15.30
2022-11-14T13:37:54.925Z,16.88
2022-11-14T13:40:47.850Z,13.13
2022-11-14T13:43:49.586Z,18.02
2022-11-14T13:46:56.137Z,17.20
2022-11-14T13:49:55.301Z,16.75
2022-11-14T13:52:44.586Z,14.63
2022-11-14T13:55:45.570Z,15.15
2022-11-14T13:58:59.394Z,15.38
2022-11-14T14:02:03.536Z,17.25
2022-11-14T14:04:59.959Z,16.20
2022-11-14T14:07:59.657Z,14.75
2022-11-14T14:10:57.017Z,17.75
2022-11-14T14:13:55.545Z,15.13
2022-11-14T14:16:50.973Z,14.55
2022-11-14T14:20:00.806Z,15.05
2022-11-14T14:22:58.170Z,17.45
2022-11-14T14:25:54.182Z,15.93
2022-11-14T14:28:53.314Z,14.82
2022-11-14T14:31:41.656Z,19.92
2022-11-14T14:34:29.795Z,12.73
2022-11-14T14:37:24.019Z,15.68
2022-11-14T14:40:25.445Z,15.43
2022-11-14T14:43:23.776Z,14.23
2022-11-14T14:46:10.644Z,15.45
2022-11-14T14:48:59.230Z,14.55
2022-11-14T14:51:46.076Z,14.43
2022-11-14T14:54:34.217Z,15.38
2022-11-14T14:57:23.226Z,14.13
2022-11-14T15:00:22.127Z,13.52
2022-11-14T15:03:11.907Z,18.85
2022-11-14T15:06:06.776Z,15.43
2022-11-14T15:08:53.381Z,18.25
2022-11-14T15:11:44.532Z,17.23
2022-11-14T15:14:33.157Z,16.50
2022-11-14T15:17:20.143Z,15.23
2022-11-14T15:20:22.551Z,16.42
2022-11-14T15:23:20.586Z,16.23
2022-11-14T15:26:14.148Z,17.02
2022-11-14T15:29:17.701Z,16.00
2022-11-14T15:32:06.030Z,16.73
2022-11-14T15:35:08.950Z,16.77
2022-11-14T15:38:36.687Z,15.32
2022-11-14T15:41:21.341Z,14.82
2022-11-14T15:44:30.660Z,15.15
2022-11-14T15:47:23.472Z,12.77
2022-11-14T15:50:26.263Z,15.18
2022-11-14T15:53:22.777Z,15.48
2022-11-14T15:56:12.549Z,14.20
2022-11-14T15:58:59.553Z,15.45
2022-11-14T16:01:50.497Z,15.88
2022-11-14T16:04:43.047Z,15.95
2022-11-14T16:07:32.783Z,14.73
2022-11-14T16:10:20.423Z,13.93
2022-11-14T16:13:07.045Z,13.93
2022-11-14T16:15:53.633Z,17.70
2022-11-14T16:18:41.521Z,17.80
2022-11-14T16:21:27.895Z,15.98
2022-11-14T16:24:17.982Z,16.40
2022-11-14T16:27:05.069Z,16.38
2022-11-14T16:29:51.558Z,17.52
2022-11-14T16:32:37.858Z,16.75
2022-11-14T16:35:27.434Z,15.10
2022-11-14T16:38:14.714Z,19.15
2022-11-14T16:41:01.205Z,15.45
2022-11-14T16:43:48.003Z,17.17
2022-11-14T16:46:34.399Z,22.23
2022-11-14T16:49:22.410Z,33.90
2022-11-14T16:52:13.030Z,23.20
2022-11-14T16:54:59.376Z,23.58
2022-11-14T16:57:45.740Z,21.00
2022-11-14T17:00:33.596Z,19.35
2022-11-14T17:03:20.006Z,19.13
2022-11-14T17:06:10.089Z,17.25
2022-11-14T17:08:59.232Z,17.75
2022-11-14T17:11:45.883Z,20.48
2022-11-14T17:14:32.680Z,25.52
2022-11-14T17:17:19.302Z,18.17
2022-11-14T17:20:07.737Z,20.13
2022-11-14T17:22:55.057Z,20.30
2022-11-14T17:25:42.961Z,17.63
2022-11-14T17:28:29.995Z,17.98
2022-11-14T17:31:17.505Z,16.77
2022-11-14T17:34:03.995Z,17.35
2022-11-14T17:36:50.440Z,18.58
2022-11-14T17:39:36.658Z,16.25
2022-11-14T17:42:24.470Z,18.50
2022-11-14T17:45:11.122Z,17.70
2022-11-14T17:47:57.704Z,15.82
2022-11-14T17:50:43.845Z,19.40
2022-11-14T17:53:30.646Z,17.38
2022-11-14T17:56:19.852Z,25.67
2022-11-14T17:59:07.956Z,18.80
2022-11-14T18:01:55.966Z,21.27
2022-11-14T18:04:42.306Z,23.63
2022-11-14T18:07:30.905Z,19.92
2022-11-14T18:10:18.185Z,23.10
2022-11-14T18:13:05.242Z,19.95
2022-11-14T18:15:53.369Z,18.73
2022-11-14T18:18:41.320Z,15.95
2022-11-14T18:21:28.240Z,15.10
2022-11-14T18:24:15.801Z,17.80
2022-11-14T18:27:02.841Z,22.42
2022-11-14T18:29:49.472Z,20.17
2022-11-14T18:32:37.592Z,17.85
2022-11-14T18:35:25.887Z,17.42
2022-11-14T18:38:14.017Z,18.17
2022-11-14T18:41:03.426Z,17.15
2022-11-14T18:43:50.628Z,16.88
2022-11-14T18:46:38.156Z,24.42
2022-11-14T18:49:28.271Z,17.05
2022-11-14T18:52:17.361Z,16.63
2022-11-14T18:55:06.035Z,16.13
2022-11-14T18:57:53.589Z,13.90
2022-11-14T19:00:40.183Z,18.30
2022-11-14T19:03:28.854Z,13.75
2022-11-14T19:06:18.372Z,15.02
2022-11-14T19:09:11.190Z,15.10
2022-11-14T19:12:15.615Z,13.43
2022-11-14T19:15:03.033Z,13.40
2022-11-14T19:17:49.767Z,13.32
2022-11-14T19:20:36.935Z,12.13
2022-11-14T19:23:25.031Z,13.35
2022-11-14T19:26:11.685Z,14.40
2022-11-14T19:29:03.188Z,12.57
2022-11-14T19:31:49.683Z,13.20
2022-11-14T19:34:36.381Z,12.05
2022-11-14T19:37:23.010Z,13.13
2022-11-14T19:40:11.712Z,11.93
2022-11-14T19:43:01.864Z,11.55
2022-11-14T19:45:48.708Z,12.60
2022-11-14T19:48:36.832Z,14.80
2022-11-14T19:51:24.136Z,11.13
2022-11-14T19:54:11.986Z,12.70
2022-11-14T19:57:01.394Z,11.05
2022-11-14T19:59:48.110Z,12.80
2022-11-14T20:02:34.283Z,11.52
2022-11-14T20:05:20.938Z,11.13
2022-11-14T20:08:07.671Z,12.45
2022-11-14T20:11:02.142Z,11.52
2022-11-14T20:13:50.671Z,10.10
2022-11-14T20:16:38.277Z,10.75
2022-11-14T20:19:24.724Z,13.02
2022-11-14T20:22:11.737Z,22.40
2022-11-14T20:24:58.046Z,45.85
2022-11-14T20:27:44.298Z,17.10
2022-11-14T20:30:32.086Z,24.50
2022-11-14T20:33:19.005Z,16.20
2022-11-14T20:36:07.484Z,12.52
2022-11-14T20:38:54.680Z,9.82
2022-11-14T20:41:41.424Z,11.57
2022-11-14T20:44:28.557Z,10.98
2022-11-14T20:47:17.358Z,9.57
2022-11-14T20:53:21.803Z,7.43
2022-11-14T20:56:08.875Z,8.90
2022-11-14T20:58:55.679Z,10.40
2022-11-14T21:04:55.624Z,9.48
2022-11-14T21:07:42.652Z,11.38
2022-11-14T21:10:46.855Z,8.98
2022-11-14T21:13:54.020Z,9.07
2022-11-14T21:16:40.820Z,8.50
2022-11-14T21:19:29.148Z,12.73
2022-11-14T21:22:17.281Z,10.75
2022-11-14T21:25:03.922Z,9.60
2022-11-14T21:27:50.491Z,7.30
2022-11-14T21:30:36.831Z,6.45
2022-11-14T21:33:23.348Z,10.00
2022-11-14T21:36:42.802Z,7.65
2022-11-14T21:39:19.398Z,6.45
2022-11-14T21:42:08.492Z,12.07
2022-11-14T21:44:54.829Z,10.15
2022-11-14T21:47:43.122Z,7.72
2022-11-14T21:50:29.734Z,5.85
2022-11-14T21:53:16.730Z,6.60
2022-11-14T21:56:12.820Z,7.75
2022-11-14T21:59:14.131Z,7.47
2022-11-14T22:02:18.603Z,7.53
2022-11-14T22:05:06.372Z,7.53
2022-11-14T22:07:52.877Z,7.38
2022-11-14T22:10:39.293Z,7.40
2022-11-14T22:13:29.579Z,9.57
2022-11-14T22:16:19.020Z,6.43
2022-11-14T22:19:06.067Z,8.40
2022-11-14T22:21:53.005Z,7.88
2022-11-14T22:24:39.752Z,6.82
2022-11-14T22:27:27.040Z,7.15
2022-11-14T22:30:15.181Z,6.60
2022-11-14T22:33:01.492Z,8.68
2022-11-14T22:35:47.997Z,5.68
2022-11-14T22:38:36.563Z,6.22
2022-11-14T22:41:29.164Z,6.65
2022-11-14T22:44:18.767Z,6.93
2022-11-14T22:47:06.431Z,6.75
2022-11-14T22:49:53.122Z,6.78
2022-11-14T22:52:39.613Z,7.25
2022-11-14T22:55:25.926Z,5.68
2022-11-14T22:58:12.070Z,6.68
2022-11-14T23:00:59.310Z,6.93
2022-11-14T23:06:35.702Z,6.57
2022-11-14T23:09:22.102Z,6.97
2022-11-14T23:12:08.690Z,6.82
2022-11-14T23:14:55.404Z,8.25
2022-11-14T23:17:42.204Z,11.38
2022-11-14T23:20:29.163Z,9.27
2022-11-14T23:23:17.130Z,9.43
2022-11-14T23:26:05.110Z,8.68
2022-11-14T23:28:52.317Z,8.13
2022-11-14T23:31:40.682Z,6.28
2022-11-14T23:34:27.061Z,6.57
2022-11-14T23:37:13.261Z,5.13
2022-11-14T23:40:01.371Z,11.27
2022-11-14T23:42:48.078Z,8.55
2022-11-14T23:45:34.796Z,9.48
2022-11-14T23:48:22.777Z,4.88
2022-11-14T23:51:09.620Z,7.72
2022-11-14T23:53:55.993Z,5.65
2022-11-14T23:56:43.669Z,3.85
2022-11-14T23:59:29.968Z,6.63
